sensor_id;sensor_type;location;lat;lon;timestamp;P1;durP1;ratioP1;P2;durP2;ratioP2
16352;SDS011;8286;51.274;9.542;2023-06-22T00:00:49;10.27;;;8.75;;
16352;SDS011;8286;51.274;9.542;2023-06-22T00:03:17;11.05;;;9.10;;
16352;SDS011;8286;51.274;9.542;2023-06-22T00:05:44;10.73;;;8.80;;
16352;SDS011;8286;51.274;9.542;2023-06-22T00:08:11;10.65;;;8.50;;
16352;SDS011;8286;51.274;9.542;2023-06-22T00:10:37;11.10;;;9.05;;
16352;SDS011;8286;51.274;9.542;2023-06-22T00:13:04;13.48;;;9.75;;
16352;SDS011;8286;51.274;9.542;2023-06-22T00:15:33;15.68;;;8.65;;
16352;SDS011;8286;51.274;9.542;2023-06-22T00:17:59;14.75;;;8.98;;
16352;SDS011;8286;51.274;9.542;2023-06-22T00:20:27;9.70;;;8.65;;
16352;SDS011;8286;51.274;9.542;2023-06-22T00:22:54;11.48;;;9.05;;
16352;SDS011;8286;51.274;9.542;2023-06-22T00:25:21;11.40;;;9.15;;
16352;SDS011;8286;51.274;9.542;2023-06-22T00:27:48;10.98;;;9.35;;
16352;SDS011;8286;51.274;9.542;2023-06-22T00:30:14;10.52;;;9.05;;
16352;SDS011;8286;51.274;9.542;2023-06-22T00:32:42;10.05;;;8.63;;
16352;SDS011;8286;51.274;9.542;2023-06-22T00:35:09;12.43;;;8.93;;
16352;SDS011;8286;51.274;9.542;2023-06-22T00:37:37;10.73;;;8.98;;
16352;SDS011;8286;51.274;9.542;2023-06-22T00:40:07;13.93;;;9.27;;
16352;SDS011;8286;51.274;9.542;2023-06-22T00:42:36;11.00;;;8.80;;
16352;SDS011;8286;51.274;9.542;2023-06-22T00:45:03;18.40;;;9.13;;
16352;SDS011;8286;51.274;9.542;2023-06-22T00:47:31;14.77;;;9.13;;
16352;SDS011;8286;51.274;9.542;2023-06-22T00:49:59;11.80;;;8.68;;
16352;SDS011;8286;51.274;9.542;2023-06-22T00:52:26;10.05;;;8.90;;
16352;SDS011;8286;51.274;9.542;2023-06-22T00:54:54;10.77;;;9.02;;
16352;SDS011;8286;51.274;9.542;2023-06-22T00:57:22;11.43;;;8.10;;
16352;SDS011;8286;51.274;9.542;2023-06-22T00:59:53;10.77;;;8.60;;
16352;SDS011;8286;51.274;9.542;2023-06-22T01:02:20;13.10;;;8.77;;
16352;SDS011;8286;51.274;9.542;2023-06-22T01:04:46;10.77;;;8.52;;
16352;SDS011;8286;51.274;9.542;2023-06-22T01:07:17;14.60;;;8.90;;
16352;SDS011;8286;51.274;9.542;2023-06-22T01:09:51;10.18;;;8.82;;
16352;SDS011;8286;51.274;9.542;2023-06-22T01:12:23;11.68;;;8.27;;
16352;SDS011;8286;51.274;9.542;2023-06-22T01:14:52;13.13;;;8.65;;
16352;SDS011;8286;51.274;9.542;2023-06-22T01:17:21;11.35;;;8.25;;
16352;SDS011;8286;51.274;9.542;2023-06-22T01:19:49;11.10;;;9.23;;
16352;SDS011;8286;51.274;9.542;2023-06-22T01:22:23;13.90;;;9.02;;
16352;SDS011;8286;51.274;9.542;2023-06-22T01:24:55;15.48;;;9.20;;
16352;SDS011;8286;51.274;9.542;2023-06-22T01:27:28;20.20;;;10.25;;
16352;SDS011;8286;51.274;9.542;2023-06-22T01:30:01;15.10;;;9.30;;
16352;SDS011;8286;51.274;9.542;2023-06-22T01:32:30;11.43;;;8.98;;
16352;SDS011;8286;51.274;9.542;2023-06-22T01:34:59;11.50;;;8.70;;
16352;SDS011;8286;51.274;9.542;2023-06-22T01:37:27;11.40;;;7.97;;
16352;SDS011;8286;51.274;9.542;2023-06-22T01:39:53;8.75;;;7.68;;
16352;SDS011;8286;51.274;9.542;2023-06-22T01:42:21;10.43;;;8.30;;
16352;SDS011;8286;51.274;9.542;2023-06-22T01:44:47;11.98;;;7.72;;
16352;SDS011;8286;51.274;9.542;2023-06-22T01:47:15;9.65;;;8.45;;
16352;SDS011;8286;51.274;9.542;2023-06-22T01:49:43;8.98;;;8.05;;
16352;SDS011;8286;51.274;9.542;2023-06-22T01:52:09;9.32;;;7.78;;
16352;SDS011;8286;51.274;9.542;2023-06-22T01:54:36;11.07;;;8.13;;
16352;SDS011;8286;51.274;9.542;2023-06-22T01:57:04;13.15;;;7.75;;
16352;SDS011;8286;51.274;9.542;2023-06-22T01:59:34;9.38;;;7.75;;
16352;SDS011;8286;51.274;9.542;2023-06-22T02:02:02;9.88;;;8.10;;
16352;SDS011;8286;51.274;9.542;2023-06-22T02:04:34;18.85;;;9.50;;
16352;SDS011;8286;51.274;9.542;2023-06-22T02:07:02;10.77;;;8.10;;
16352;SDS011;8286;51.274;9.542;2023-06-22T02:09:32;9.30;;;7.50;;
16352;SDS011;8286;51.274;9.542;2023-06-22T02:12:00;13.68;;;9.10;;
16352;SDS011;8286;51.274;9.542;2023-06-22T02:14:28;9.95;;;8.57;;
16352;SDS011;8286;51.274;9.542;2023-06-22T02:16:55;10.85;;;8.68;;
16352;SDS011;8286;51.274;9.542;2023-06-22T02:19:24;11.13;;;8.60;;
16352;SDS011;8286;51.274;9.542;2023-06-22T02:21:52;13.35;;;8.20;;
16352;SDS011;8286;51.274;9.542;2023-06-22T02:24:18;14.98;;;9.20;;
16352;SDS011;8286;51.274;9.542;2023-06-22T02:26:48;12.95;;;8.00;;
16352;SDS011;8286;51.274;9.542;2023-06-22T02:29:15;15.52;;;8.20;;
16352;SDS011;8286;51.274;9.542;2023-06-22T02:31:42;13.73;;;8.48;;
16352;SDS011;8286;51.274;9.542;2023-06-22T02:34:08;10.45;;;8.50;;
16352;SDS011;8286;51.274;9.542;2023-06-22T02:36:35;15.05;;;9.15;;
16352;SDS011;8286;51.274;9.542;2023-06-22T02:39:03;18.05;;;8.40;;
16352;SDS011;8286;51.274;9.542;2023-06-22T02:41:29;14.77;;;9.23;;
16352;SDS011;8286;51.274;9.542;2023-06-22T02:43:56;13.10;;;8.80;;
16352;SDS011;8286;51.274;9.542;2023-06-22T02:46:22;14.60;;;8.50;;
16352;SDS011;8286;51.274;9.542;2023-06-22T02:48:49;12.70;;;9.13;;
16352;SDS011;8286;51.274;9.542;2023-06-22T02:51:16;10.88;;;8.23;;
16352;SDS011;8286;51.274;9.542;2023-06-22T02:53:42;13.52;;;9.18;;
16352;SDS011;8286;51.274;9.542;2023-06-22T02:56:11;10.23;;;8.30;;
16352;SDS011;8286;51.274;9.542;2023-06-22T02:58:37;11.38;;;8.77;;
16352;SDS011;8286;51.274;9.542;2023-06-22T03:01:04;16.17;;;8.60;;
16352;SDS011;8286;51.274;9.542;2023-06-22T03:03:31;14.98;;;9.07;;
16352;SDS011;8286;51.274;9.542;2023-06-22T03:05:57;16.60;;;9.88;;
16352;SDS011;8286;51.274;9.542;2023-06-22T03:08:25;17.58;;;9.77;;
16352;SDS011;8286;51.274;9.542;2023-06-22T03:10:52;20.90;;;10.27;;
16352;SDS011;8286;51.274;9.542;2023-06-22T03:13:20;16.20;;;9.45;;
16352;SDS011;8286;51.274;9.542;2023-06-22T03:15:47;14.20;;;9.60;;
16352;SDS011;8286;51.274;9.542;2023-06-22T03:18:13;18.90;;;10.30;;
16352;SDS011;8286;51.274;9.542;2023-06-22T03:20:40;13.77;;;8.63;;
16352;SDS011;8286;51.274;9.542;2023-06-22T03:23:07;14.02;;;8.80;;
16352;SDS011;8286;51.274;9.542;2023-06-22T03:25:34;14.85;;;9.00;;
16352;SDS011;8286;51.274;9.542;2023-06-22T03:28:01;18.92;;;8.45;;
16352;SDS011;8286;51.274;9.542;2023-06-22T03:30:29;12.73;;;8.65;;
16352;SDS011;8286;51.274;9.542;2023-06-22T03:32:55;14.95;;;8.82;;
16352;SDS011;8286;51.274;9.542;2023-06-22T03:35:22;14.48;;;8.82;;
16352;SDS011;8286;51.274;9.542;2023-06-22T03:37:49;17.60;;;8.65;;
16352;SDS011;8286;51.274;9.542;2023-06-22T03:40:15;20.30;;;8.60;;
16352;SDS011;8286;51.274;9.542;2023-06-22T03:42:42;14.63;;;8.13;;
16352;SDS011;8286;51.274;9.542;2023-06-22T03:45:09;17.80;;;8.98;;
16352;SDS011;8286;51.274;9.542;2023-06-22T03:47:37;13.98;;;9.43;;
16352;SDS011;8286;51.274;9.542;2023-06-22T03:50:04;14.68;;;9.48;;
16352;SDS011;8286;51.274;9.542;2023-06-22T03:52:31;16.52;;;9.70;;
16352;SDS011;8286;51.274;9.542;2023-06-22T03:54:58;17.35;;;10.68;;
16352;SDS011;8286;51.274;9.542;2023-06-22T03:57:25;13.63;;;9.45;;
16352;SDS011;8286;51.274;9.542;2023-06-22T03:59:51;14.98;;;10.77;;
16352;SDS011;8286;51.274;9.542;2023-06-22T04:02:18;12.18;;;10.88;;
16352;SDS011;8286;51.274;9.542;2023-06-22T04:04:45;12.80;;;10.68;;
16352;SDS011;8286;51.274;9.542;2023-06-22T04:07:12;15.23;;;11.38;;
16352;SDS011;8286;51.274;9.542;2023-06-22T04:09:38;15.88;;;11.13;;
16352;SDS011;8286;51.274;9.542;2023-06-22T04:12:05;21.65;;;11.80;;
16352;SDS011;8286;51.274;9.542;2023-06-22T04:14:32;16.05;;;11.45;;
16352;SDS011;8286;51.274;9.542;2023-06-22T04:16:59;17.73;;;11.85;;
16352;SDS011;8286;51.274;9.542;2023-06-22T04:19:25;16.95;;;11.80;;
16352;SDS011;8286;51.274;9.542;2023-06-22T04:21:53;17.85;;;11.68;;
16352;SDS011;8286;51.274;9.542;2023-06-22T04:24:20;17.65;;;10.95;;
16352;SDS011;8286;51.274;9.542;2023-06-22T04:26:46;18.45;;;11.27;;
16352;SDS011;8286;51.274;9.542;2023-06-22T04:29:13;15.02;;;10.63;;
16352;SDS011;8286;51.274;9.542;2023-06-22T04:31:39;14.80;;;10.68;;
16352;SDS011;8286;51.274;9.542;2023-06-22T04:34:06;13.75;;;10.73;;
16352;SDS011;8286;51.274;9.542;2023-06-22T04:36:36;17.90;;;10.73;;
16352;SDS011;8286;51.274;9.542;2023-06-22T04:39:07;19.45;;;11.80;;
16352;SDS011;8286;51.274;9.542;2023-06-22T04:41:34;16.55;;;11.38;;
16352;SDS011;8286;51.274;9.542;2023-06-22T04:44:07;14.90;;;10.75;;
16352;SDS011;8286;51.274;9.542;2023-06-22T04:46:34;16.35;;;10.65;;
16352;SDS011;8286;51.274;9.542;2023-06-22T04:49:03;12.77;;;9.98;;
16352;SDS011;8286;51.274;9.542;2023-06-22T04:51:31;15.05;;;10.82;;
16352;SDS011;8286;51.274;9.542;2023-06-22T04:53:57;16.55;;;11.65;;
16352;SDS011;8286;51.274;9.542;2023-06-22T04:56:27;16.92;;;11.10;;
16352;SDS011;8286;51.274;9.542;2023-06-22T04:58:54;17.80;;;11.43;;
16352;SDS011;8286;51.274;9.542;2023-06-22T05:01:22;17.30;;;11.18;;
16352;SDS011;8286;51.274;9.542;2023-06-22T05:03:48;16.35;;;10.40;;
16352;SDS011;8286;51.274;9.542;2023-06-22T05:06:15;16.80;;;11.05;;
16352;SDS011;8286;51.274;9.542;2023-06-22T05:08:42;17.73;;;10.65;;
16352;SDS011;8286;51.274;9.542;2023-06-22T05:11:09;16.85;;;10.57;;
16352;SDS011;8286;51.274;9.542;2023-06-22T05:13:37;12.27;;;10.20;;
16352;SDS011;8286;51.274;9.542;2023-06-22T05:16:03;16.42;;;10.38;;
16352;SDS011;8286;51.274;9.542;2023-06-22T05:18:31;19.58;;;10.82;;
16352;SDS011;8286;51.274;9.542;2023-06-22T05:20:57;16.13;;;10.85;;
16352;SDS011;8286;51.274;9.542;2023-06-22T05:23:24;16.77;;;9.70;;
16352;SDS011;8286;51.274;9.542;2023-06-22T05:25:51;18.38;;;10.35;;
16352;SDS011;8286;51.274;9.542;2023-06-22T05:28:19;16.92;;;10.23;;
16352;SDS011;8286;51.274;9.542;2023-06-22T05:30:49;14.88;;;10.48;;
16352;SDS011;8286;51.274;9.542;2023-06-22T05:33:16;14.68;;;10.70;;
16352;SDS011;8286;51.274;9.542;2023-06-22T05:35:42;16.85;;;9.90;;
16352;SDS011;8286;51.274;9.542;2023-06-22T05:38:09;13.43;;;10.32;;
16352;SDS011;8286;51.274;9.542;2023-06-22T05:40:35;13.00;;;10.20;;
16352;SDS011;8286;51.274;9.542;2023-06-22T05:43:02;16.33;;;9.77;;
16352;SDS011;8286;51.274;9.542;2023-06-22T05:45:28;12.27;;;9.38;;
16352;SDS011;8286;51.274;9.542;2023-06-22T05:47:56;16.25;;;9.30;;
16352;SDS011;8286;51.274;9.542;2023-06-22T05:50:23;10.23;;;9.10;;
16352;SDS011;8286;51.274;9.542;2023-06-22T05:52:49;11.90;;;9.45;;
16352;SDS011;8286;51.274;9.542;2023-06-22T05:55:16;16.35;;;10.35;;
16352;SDS011;8286;51.274;9.542;2023-06-22T05:57:43;11.68;;;8.65;;
16352;SDS011;8286;51.274;9.542;2023-06-22T06:00:10;9.73;;;8.50;;
16352;SDS011;8286;51.274;9.542;2023-06-22T06:02:38;12.63;;;8.95;;
16352;SDS011;8286;51.274;9.542;2023-06-22T06:05:10;10.65;;;8.40;;
16352;SDS011;8286;51.274;9.542;2023-06-22T06:07:38;11.65;;;9.02;;
16352;SDS011;8286;51.274;9.542;2023-06-22T06:10:05;12.13;;;9.20;;
16352;SDS011;8286;51.274;9.542;2023-06-22T06:12:33;11.63;;;7.07;;
16352;SDS011;8286;51.274;9.542;2023-06-22T06:14:59;8.32;;;7.13;;
16352;SDS011;8286;51.274;9.542;2023-06-22T06:17:26;10.57;;;8.13;;
16352;SDS011;8286;51.274;9.542;2023-06-22T06:19:52;9.13;;;8.07;;
16352;SDS011;8286;51.274;9.542;2023-06-22T06:22:20;8.25;;;7.35;;
16352;SDS011;8286;51.274;9.542;2023-06-22T06:24:48;10.73;;;8.20;;
16352;SDS011;8286;51.274;9.542;2023-06-22T06:27:15;14.50;;;8.30;;
16352;SDS011;8286;51.274;9.542;2023-06-22T06:29:43;7.65;;;6.80;;
16352;SDS011;8286;51.274;9.542;2023-06-22T06:32:10;8.57;;;7.45;;
16352;SDS011;8286;51.274;9.542;2023-06-22T06:34:37;9.02;;;8.05;;
16352;SDS011;8286;51.274;9.542;2023-06-22T06:37:04;9.55;;;8.55;;
16352;SDS011;8286;51.274;9.542;2023-06-22T06:39:31;10.00;;;8.02;;
16352;SDS011;8286;51.274;9.542;2023-06-22T06:41:58;9.73;;;7.70;;
16352;SDS011;8286;51.274;9.542;2023-06-22T06:44:24;15.27;;;8.48;;
16352;SDS011;8286;51.274;9.542;2023-06-22T06:46:51;13.25;;;9.05;;
16352;SDS011;8286;51.274;9.542;2023-06-22T06:49:19;17.50;;;8.38;;
16352;SDS011;8286;51.274;9.542;2023-06-22T06:51:45;8.35;;;7.07;;
16352;SDS011;8286;51.274;9.542;2023-06-22T06:54:12;9.45;;;7.13;;
16352;SDS011;8286;51.274;9.542;2023-06-22T06:56:40;9.50;;;7.55;;
16352;SDS011;8286;51.274;9.542;2023-06-22T06:59:13;9.52;;;6.90;;
16352;SDS011;8286;51.274;9.542;2023-06-22T07:01:39;14.40;;;7.95;;
16352;SDS011;8286;51.274;9.542;2023-06-22T07:04:06;9.95;;;7.32;;
16352;SDS011;8286;51.274;9.542;2023-06-22T07:06:33;14.32;;;7.93;;
16352;SDS011;8286;51.274;9.542;2023-06-22T07:08:59;12.05;;;6.90;;
16352;SDS011;8286;51.274;9.542;2023-06-22T07:11:26;9.80;;;6.55;;
16352;SDS011;8286;51.274;9.542;2023-06-22T07:13:54;10.05;;;7.45;;
16352;SDS011;8286;51.274;9.542;2023-06-22T07:16:20;9.98;;;6.93;;
16352;SDS011;8286;51.274;9.542;2023-06-22T07:18:48;7.13;;;6.30;;
16352;SDS011;8286;51.274;9.542;2023-06-22T07:21:14;7.13;;;6.43;;
16352;SDS011;8286;51.274;9.542;2023-06-22T07:23:41;9.05;;;6.65;;
16352;SDS011;8286;51.274;9.542;2023-06-22T07:26:07;7.00;;;6.03;;
16352;SDS011;8286;51.274;9.542;2023-06-22T07:28:34;8.05;;;6.43;;
16352;SDS011;8286;51.274;9.542;2023-06-22T07:31:04;6.70;;;6.05;;
16352;SDS011;8286;51.274;9.542;2023-06-22T07:33:30;8.90;;;6.40;;
16352;SDS011;8286;51.274;9.542;2023-06-22T07:35:57;6.60;;;6.03;;
16352;SDS011;8286;51.274;9.542;2023-06-22T07:38:23;10.68;;;6.43;;
16352;SDS011;8286;51.274;9.542;2023-06-22T07:40:50;6.30;;;5.65;;
16352;SDS011;8286;51.274;9.542;2023-06-22T07:43:18;6.10;;;5.60;;
16352;SDS011;8286;51.274;9.542;2023-06-22T07:45:47;6.30;;;5.68;;
16352;SDS011;8286;51.274;9.542;2023-06-22T07:48:19;6.85;;;6.03;;
16352;SDS011;8286;51.274;9.542;2023-06-22T07:50:46;6.25;;;5.65;;
16352;SDS011;8286;51.274;9.542;2023-06-22T07:53:13;6.20;;;5.60;;
16352;SDS011;8286;51.274;9.542;2023-06-22T07:55:39;6.10;;;5.60;;
16352;SDS011;8286;51.274;9.542;2023-06-22T07:58:06;7.43;;;5.13;;
16352;SDS011;8286;51.274;9.542;2023-06-22T08:00:33;6.07;;;5.57;;
16352;SDS011;8286;51.274;9.542;2023-06-22T08:02:59;7.68;;;5.22;;
16352;SDS011;8286;51.274;9.542;2023-06-22T08:05:31;6.13;;;5.63;;
16352;SDS011;8286;51.274;9.542;2023-06-22T08:07:58;5.90;;;5.30;;
16352;SDS011;8286;51.274;9.542;2023-06-22T08:10:24;7.18;;;5.93;;
16352;SDS011;8286;51.274;9.542;2023-06-22T08:12:51;6.00;;;5.50;;
16352;SDS011;8286;51.274;9.542;2023-06-22T08:15:18;6.68;;;5.40;;
16352;SDS011;8286;51.274;9.542;2023-06-22T08:17:44;5.70;;;5.28;;
16352;SDS011;8286;51.274;9.542;2023-06-22T08:20:11;6.45;;;5.47;;
16352;SDS011;8286;51.274;9.542;2023-06-22T08:22:39;6.28;;;5.78;;
16352;SDS011;8286;51.274;9.542;2023-06-22T08:25:06;5.45;;;5.05;;
16352;SDS011;8286;51.274;9.542;2023-06-22T08:27:34;6.13;;;5.50;;
16352;SDS011;8286;51.274;9.542;2023-06-22T08:30:01;6.32;;;5.75;;
16352;SDS011;8286;51.274;9.542;2023-06-22T08:32:28;6.50;;;5.90;;
16352;SDS011;8286;51.274;9.542;2023-06-22T08:34:55;6.25;;;5.65;;
16352;SDS011;8286;51.274;9.542;2023-06-22T08:37:22;5.55;;;5.15;;
16352;SDS011;8286;51.274;9.542;2023-06-22T08:39:56;6.00;;;5.50;;
16352;SDS011;8286;51.274;9.542;2023-06-22T08:42:23;5.80;;;5.30;;
16352;SDS011;8286;51.274;9.542;2023-06-22T08:44:50;5.38;;;4.95;;
16352;SDS011;8286;51.274;9.542;2023-06-22T08:47:17;7.32;;;5.05;;
16352;SDS011;8286;51.274;9.542;2023-06-22T08:49:44;5.53;;;5.10;;
16352;SDS011;8286;51.274;9.542;2023-06-22T08:52:11;6.18;;;5.53;;
16352;SDS011;8286;51.274;9.542;2023-06-22T08:54:37;6.53;;;5.93;;
16352;SDS011;8286;51.274;9.542;2023-06-22T08:57:05;5.60;;;5.10;;
16352;SDS011;8286;51.274;9.542;2023-06-22T08:59:32;6.07;;;5.57;;
16352;SDS011;8286;51.274;9.542;2023-06-22T09:01:58;7.78;;;5.68;;
16352;SDS011;8286;51.274;9.542;2023-06-22T09:04:25;6.22;;;5.63;;
16352;SDS011;8286;51.274;9.542;2023-06-22T09:06:51;6.22;;;5.65;;
16352;SDS011;8286;51.274;9.542;2023-06-22T09:09:18;6.70;;;6.20;;
16352;SDS011;8286;51.274;9.542;2023-06-22T09:11:45;6.50;;;5.97;;
16352;SDS011;8286;51.274;9.542;2023-06-22T09:14:13;8.32;;;6.10;;
16352;SDS011;8286;51.274;9.542;2023-06-22T09:16:40;6.90;;;5.85;;
16352;SDS011;8286;51.274;9.542;2023-06-22T09:19:06;6.47;;;5.97;;
16352;SDS011;8286;51.274;9.542;2023-06-22T09:21:33;7.38;;;6.60;;
16352;SDS011;8286;51.274;9.542;2023-06-22T09:23:59;10.13;;;6.00;;
16352;SDS011;8286;51.274;9.542;2023-06-22T09:26:26;6.72;;;6.13;;
16352;SDS011;8286;51.274;9.542;2023-06-22T09:28:53;6.32;;;5.82;;
16352;SDS011;8286;51.274;9.542;2023-06-22T09:31:21;6.47;;;5.93;;
16352;SDS011;8286;51.274;9.542;2023-06-22T09:33:50;7.00;;;6.30;;
16352;SDS011;8286;51.274;9.542;2023-06-22T09:36:18;6.78;;;6.18;;
16352;SDS011;8286;51.274;9.542;2023-06-22T09:38:44;9.02;;;6.75;;
16352;SDS011;8286;51.274;9.542;2023-06-22T09:41:11;9.20;;;7.10;;
16352;SDS011;8286;51.274;9.542;2023-06-22T09:43:37;7.40;;;6.40;;
16352;SDS011;8286;51.274;9.542;2023-06-22T09:46:04;8.18;;;6.00;;
16352;SDS011;8286;51.274;9.542;2023-06-22T09:48:33;7.45;;;6.75;;
16352;SDS011;8286;51.274;9.542;2023-06-22T09:51:00;7.30;;;6.60;;
16352;SDS011;8286;51.274;9.542;2023-06-22T09:53:26;7.72;;;6.93;;
16352;SDS011;8286;51.274;9.542;2023-06-22T09:55:53;7.78;;;6.18;;
16352;SDS011;8286;51.274;9.542;2023-06-22T09:58:20;7.60;;;6.90;;
16352;SDS011;8286;51.274;9.542;2023-06-22T10:00:46;7.15;;;6.32;;
16352;SDS011;8286;51.274;9.542;2023-06-22T10:03:13;7.57;;;6.05;;
16352;SDS011;8286;51.274;9.542;2023-06-22T10:05:41;7.70;;;7.00;;
16352;SDS011;8286;51.274;9.542;2023-06-22T10:08:07;7.18;;;6.45;;
16352;SDS011;8286;51.274;9.542;2023-06-22T10:10:35;7.32;;;6.63;;
16352;SDS011;8286;51.274;9.542;2023-06-22T10:13:03;8.55;;;6.18;;
16352;SDS011;8286;51.274;9.542;2023-06-22T10:15:34;6.97;;;6.28;;
16352;SDS011;8286;51.274;9.542;2023-06-22T10:18:01;6.30;;;5.72;;
16352;SDS011;8286;51.274;9.542;2023-06-22T10:20:27;6.32;;;5.70;;
16352;SDS011;8286;51.274;9.542;2023-06-22T10:22:55;9.25;;;6.20;;
16352;SDS011;8286;51.274;9.542;2023-06-22T10:25:22;5.90;;;5.30;;
16352;SDS011;8286;51.274;9.542;2023-06-22T10:27:48;5.60;;;5.10;;
16352;SDS011;8286;51.274;9.542;2023-06-22T10:30:15;6.20;;;5.60;;
16352;SDS011;8286;51.274;9.542;2023-06-22T10:32:42;5.78;;;5.38;;
16352;SDS011;8286;51.274;9.542;2023-06-22T10:35:08;9.38;;;6.72;;
16352;SDS011;8286;51.274;9.542;2023-06-22T10:37:35;6.15;;;5.55;;
16352;SDS011;8286;51.274;9.542;2023-06-22T10:40:05;5.65;;;5.15;;
16352;SDS011;8286;51.274;9.542;2023-06-22T10:42:33;5.70;;;5.20;;
16352;SDS011;8286;51.274;9.542;2023-06-22T10:44:59;5.63;;;5.22;;
16352;SDS011;8286;51.274;9.542;2023-06-22T10:47:26;6.50;;;5.78;;
16352;SDS011;8286;51.274;9.542;2023-06-22T10:49:52;5.63;;;5.22;;
16352;SDS011;8286;51.274;9.542;2023-06-22T10:52:19;7.80;;;5.38;;
16352;SDS011;8286;51.274;9.542;2023-06-22T10:54:46;6.03;;;5.43;;
16352;SDS011;8286;51.274;9.542;2023-06-22T10:57:14;8.02;;;5.68;;
16352;SDS011;8286;51.274;9.542;2023-06-22T10:59:40;8.15;;;5.50;;
16352;SDS011;8286;51.274;9.542;2023-06-22T11:02:07;6.25;;;5.70;;
16352;SDS011;8286;51.274;9.542;2023-06-22T11:04:33;7.45;;;5.70;;
16352;SDS011;8286;51.274;9.542;2023-06-22T11:07:00;6.72;;;5.80;;
16352;SDS011;8286;51.274;9.542;2023-06-22T11:09:26;6.32;;;5.82;;
16352;SDS011;8286;51.274;9.542;2023-06-22T11:11:53;6.28;;;5.68;;
16352;SDS011;8286;51.274;9.542;2023-06-22T11:14:21;6.25;;;5.75;;
16352;SDS011;8286;51.274;9.542;2023-06-22T11:16:47;7.45;;;6.10;;
16352;SDS011;8286;51.274;9.542;2023-06-22T11:19:14;6.45;;;5.85;;
16352;SDS011;8286;51.274;9.542;2023-06-22T11:21:41;7.28;;;5.65;;
16352;SDS011;8286;51.274;9.542;2023-06-22T11:24:07;6.13;;;5.53;;
16352;SDS011;8286;51.274;9.542;2023-06-22T11:26:34;7.32;;;5.13;;
16352;SDS011;8286;51.274;9.542;2023-06-22T11:29:00;6.65;;;6.05;;
16352;SDS011;8286;51.274;9.542;2023-06-22T11:31:31;6.00;;;5.50;;
16352;SDS011;8286;51.274;9.542;2023-06-22T11:33:58;6.45;;;5.93;;
16352;SDS011;8286;51.274;9.542;2023-06-22T11:36:24;6.22;;;5.63;;
16352;SDS011;8286;51.274;9.542;2023-06-22T11:38:51;6.05;;;5.03;;
16352;SDS011;8286;51.274;9.542;2023-06-22T11:41:18;6.45;;;5.85;;
16352;SDS011;8286;51.274;9.542;2023-06-22T11:43:44;6.20;;;5.28;;
16352;SDS011;8286;51.274;9.542;2023-06-22T11:46:11;6.15;;;5.60;;
16352;SDS011;8286;51.274;9.542;2023-06-22T11:48:39;6.07;;;5.57;;
16352;SDS011;8286;51.274;9.542;2023-06-22T11:51:05;5.72;;;5.20;;
16352;SDS011;8286;51.274;9.542;2023-06-22T11:53:33;6.43;;;5.43;;
16352;SDS011;8286;51.274;9.542;2023-06-22T11:56:00;5.60;;;5.10;;
16352;SDS011;8286;51.274;9.542;2023-06-22T11:58:27;6.82;;;5.75;;
16352;SDS011;8286;51.274;9.542;2023-06-22T12:00:53;6.10;;;5.50;;
16352;SDS011;8286;51.274;9.542;2023-06-22T12:03:20;6.43;;;5.40;;
16352;SDS011;8286;51.274;9.542;2023-06-22T12:05:49;5.40;;;4.90;;
16352;SDS011;8286;51.274;9.542;2023-06-22T12:08:16;5.20;;;4.78;;
16352;SDS011;8286;51.274;9.542;2023-06-22T12:10:42;7.60;;;4.93;;
16352;SDS011;8286;51.274;9.542;2023-06-22T12:13:09;6.18;;;5.40;;
16352;SDS011;8286;51.274;9.542;2023-06-22T12:15:35;5.75;;;5.18;;
16352;SDS011;8286;51.274;9.542;2023-06-22T12:18:02;6.00;;;5.40;;
16352;SDS011;8286;51.274;9.542;2023-06-22T12:20:28;7.43;;;5.00;;
16352;SDS011;8286;51.274;9.542;2023-06-22T12:22:57;5.40;;;4.90;;
16352;SDS011;8286;51.274;9.542;2023-06-22T12:25:23;5.75;;;4.80;;
16352;SDS011;8286;51.274;9.542;2023-06-22T12:27:50;5.85;;;5.35;;
16352;SDS011;8286;51.274;9.542;2023-06-22T12:30:17;5.85;;;5.25;;
16352;SDS011;8286;51.274;9.542;2023-06-22T12:32:43;7.80;;;5.60;;
16352;SDS011;8286;51.274;9.542;2023-06-22T12:35:10;6.93;;;5.68;;
16352;SDS011;8286;51.274;9.542;2023-06-22T12:37:38;6.85;;;5.88;;
16352;SDS011;8286;51.274;9.542;2023-06-22T12:40:08;8.32;;;5.80;;
16352;SDS011;8286;51.274;9.542;2023-06-22T12:42:35;8.30;;;5.60;;
16352;SDS011;8286;51.274;9.542;2023-06-22T12:45:01;6.22;;;5.63;;
16352;SDS011;8286;51.274;9.542;2023-06-22T12:47:28;6.38;;;5.72;;
16352;SDS011;8286;51.274;9.542;2023-06-22T12:49:55;7.65;;;5.95;;
16352;SDS011;8286;51.274;9.542;2023-06-22T12:52:21;7.05;;;6.28;;
16352;SDS011;8286;51.274;9.542;2023-06-22T12:54:48;8.50;;;6.10;;
16352;SDS011;8286;51.274;9.542;2023-06-22T12:57:16;7.50;;;5.80;;
16352;SDS011;8286;51.274;9.542;2023-06-22T12:59:44;7.20;;;6.47;;
16352;SDS011;8286;51.274;9.542;2023-06-22T13:02:10;9.00;;;6.22;;
16352;SDS011;8286;51.274;9.542;2023-06-22T13:04:38;7.28;;;6.50;;
16352;SDS011;8286;51.274;9.542;2023-06-22T13:07:05;7.22;;;6.43;;
16352;SDS011;8286;51.274;9.542;2023-06-22T13:09:31;7.10;;;6.47;;
16352;SDS011;8286;51.274;9.542;2023-06-22T13:11:59;7.70;;;6.63;;
16352;SDS011;8286;51.274;9.542;2023-06-22T13:14:28;8.00;;;6.22;;
16352;SDS011;8286;51.274;9.542;2023-06-22T13:16:54;7.63;;;6.82;;
16352;SDS011;8286;51.274;9.542;2023-06-22T13:19:21;7.28;;;6.57;;
16352;SDS011;8286;51.274;9.542;2023-06-22T13:21:47;7.53;;;6.72;;
16352;SDS011;8286;51.274;9.542;2023-06-22T13:24:14;8.82;;;6.75;;
16352;SDS011;8286;51.274;9.542;2023-06-22T13:26:41;7.18;;;6.20;;
16352;SDS011;8286;51.274;9.542;2023-06-22T13:29:08;9.82;;;7.00;;
16352;SDS011;8286;51.274;9.542;2023-06-22T13:31:36;7.78;;;6.97;;
16352;SDS011;8286;51.274;9.542;2023-06-22T13:34:03;7.78;;;7.05;;
16352;SDS011;8286;51.274;9.542;2023-06-22T13:36:30;9.85;;;7.43;;
16352;SDS011;8286;51.274;9.542;2023-06-22T13:38:56;9.20;;;6.80;;
16352;SDS011;8286;51.274;9.542;2023-06-22T13:41:23;8.52;;;7.18;;
16352;SDS011;8286;51.274;9.542;2023-06-22T13:43:49;10.55;;;6.93;;
16352;SDS011;8286;51.274;9.542;2023-06-22T13:46:16;8.40;;;6.72;;
16352;SDS011;8286;51.274;9.542;2023-06-22T13:48:44;8.23;;;6.82;;
16352;SDS011;8286;51.274;9.542;2023-06-22T13:51:10;9.00;;;7.10;;
16352;SDS011;8286;51.274;9.542;2023-06-22T13:53:37;8.88;;;7.20;;
16352;SDS011;8286;51.274;9.542;2023-06-22T13:56:03;8.32;;;7.32;;
16352;SDS011;8286;51.274;9.542;2023-06-22T13:58:30;8.13;;;7.32;;
16352;SDS011;8286;51.274;9.542;2023-06-22T14:00:56;12.20;;;7.97;;
16352;SDS011;8286;51.274;9.542;2023-06-22T14:03:23;7.80;;;7.07;;
16352;SDS011;8286;51.274;9.542;2023-06-22T14:05:51;8.45;;;7.43;;
16352;SDS011;8286;51.274;9.542;2023-06-22T14:08:21;7.65;;;6.88;;
16352;SDS011;8286;51.274;9.542;2023-06-22T14:10:48;8.40;;;7.53;;
16352;SDS011;8286;51.274;9.542;2023-06-22T14:13:15;7.82;;;7.03;;
16352;SDS011;8286;51.274;9.542;2023-06-22T14:15:41;7.85;;;7.05;;
16352;SDS011;8286;51.274;9.542;2023-06-22T14:18:08;7.63;;;6.82;;
16352;SDS011;8286;51.274;9.542;2023-06-22T14:20:34;12.43;;;7.55;;
16352;SDS011;8286;51.274;9.542;2023-06-22T14:23:02;9.75;;;7.03;;
16352;SDS011;8286;51.274;9.542;2023-06-22T14:25:29;11.25;;;7.40;;
16352;SDS011;8286;51.274;9.542;2023-06-22T14:27:55;11.10;;;7.25;;
16352;SDS011;8286;51.274;9.542;2023-06-22T14:30:22;8.68;;;7.50;;
16352;SDS011;8286;51.274;9.542;2023-06-22T14:32:49;8.27;;;7.32;;
16352;SDS011;8286;51.274;9.542;2023-06-22T14:35:15;9.05;;;7.05;;
16352;SDS011;8286;51.274;9.542;2023-06-22T14:37:42;9.48;;;8.10;;
16352;SDS011;8286;51.274;9.542;2023-06-22T14:40:10;11.38;;;4.03;;
16352;SDS011;8286;51.274;9.542;2023-06-22T14:42:37;10.63;;;3.20;;
16352;SDS011;8286;51.274;9.542;2023-06-22T14:45:04;11.32;;;3.83;;
16352;SDS011;8286;51.274;9.542;2023-06-22T14:47:32;12.57;;;3.03;;
16352;SDS011;8286;51.274;9.542;2023-06-22T14:49:58;11.23;;;4.50;;
16352;SDS011;8286;51.274;9.542;2023-06-22T14:52:25;13.27;;;4.68;;